sensor_id;sensor_type;location;lat;lon;timestamp;pressure;altitude;pressure_sealevel;temperature;humidity
3748;BME280;1889;50.058;8.688;2023-06-22T00:01:33;100125.84;;;24.94;63.89
3748;BME280;1889;50.058;8.688;2023-06-22T00:04:02;100151.70;;;25.02;63.51
3748;BME280;1889;50.058;8.688;2023-06-22T00:06:31;100175.19;;;24.77;64.41
3748;BME280;1889;50.058;8.688;2023-06-22T00:09:00;100202.02;;;24.54;65.28
3748;BME280;1889;50.058;8.688;2023-06-22T00:11:29;100224.81;;;24.43;65.89
3748;BME280;1889;50.058;8.688;2023-06-22T00:14:00;100252.77;;;24.71;64.69
3748;BME280;1889;50.058;8.688;2023-06-22T00:16:30;100268.75;;;24.86;64.21
3748;BME280;1889;50.058;8.688;2023-06-22T00:19:00;100282.33;;;24.66;65.50
3748;BME280;1889;50.058;8.688;2023-06-22T00:21:30;100285.61;;;24.40;66.82
3748;BME280;1889;50.058;8.688;2023-06-22T00:23:59;100290.64;;;24.19;68.90
3748;BME280;1889;50.058;8.688;2023-06-22T00:26:28;100298.98;;;24.09;69.45
3748;BME280;1889;50.058;8.688;2023-06-22T00:28:57;100306.63;;;24.03;69.95
3748;BME280;1889;50.058;8.688;2023-06-22T00:31:26;100306.14;;;23.78;70.88
3748;BME280;1889;50.058;8.688;2023-06-22T00:33:55;100316.76;;;23.54;72.31
3748;BME280;1889;50.058;8.688;2023-06-22T00:36:24;100314.92;;;23.35;73.65
3748;BME280;1889;50.058;8.688;2023-06-22T00:38:53;100322.06;;;23.21;74.77
3748;BME280;1889;50.058;8.688;2023-06-22T00:41:22;100344.22;;;23.45;73.29
3748;BME280;1889;50.058;8.688;2023-06-22T00:43:51;100352.70;;;23.66;72.08
3748;BME280;1889;50.058;8.688;2023-06-22T00:46:21;100363.51;;;23.71;71.68
3748;BME280;1889;50.058;8.688;2023-06-22T00:48:52;100377.67;;;23.80;71.07
3748;BME280;1889;50.058;8.688;2023-06-22T00:51:23;100381.66;;;23.87;70.61
3748;BME280;1889;50.058;8.688;2023-06-22T00:53:52;100381.56;;;23.69;71.25
3748;BME280;1889;50.058;8.688;2023-06-22T00:56:22;100385.02;;;23.71;71.07
3748;BME280;1889;50.058;8.688;2023-06-22T00:58:52;100390.11;;;23.88;70.06
3748;BME280;1889;50.058;8.688;2023-06-22T01:01:22;100389.14;;;23.89;69.29
3748;BME280;1889;50.058;8.688;2023-06-22T01:03:51;100386.99;;;23.94;68.71
3748;BME280;1889;50.058;8.688;2023-06-22T01:06:24;100391.41;;;24.08;68.13
3748;BME280;1889;50.058;8.688;2023-06-22T01:09:11;100389.30;;;24.26;67.44
3748;BME280;1889;50.058;8.688;2023-06-22T01:11:44;100405.95;;;24.38;66.79
3748;BME280;1889;50.058;8.688;2023-06-22T01:14:23;100444.20;;;24.49;66.09
3748;BME280;1889;50.058;8.688;2023-06-22T01:16:52;100474.27;;;24.55;65.77
3748;BME280;1889;50.058;8.688;2023-06-22T01:19:39;100495.89;;;24.66;66.06
3748;BME280;1889;50.058;8.688;2023-06-22T01:22:10;100517.07;;;24.78;66.14
3748;BME280;1889;50.058;8.688;2023-06-22T01:30:32;100527.44;;;24.52;68.82
3748;BME280;1889;50.058;8.688;2023-06-22T01:33:03;100479.42;;;24.46;68.89
3748;BME280;1889;50.058;8.688;2023-06-22T01:35:34;100381.28;;;24.44;69.18
3748;BME280;1889;50.058;8.688;2023-06-22T01:38:04;100242.70;;;24.50;69.26
3748;BME280;1889;50.058;8.688;2023-06-22T01:40:34;100191.66;;;24.43;69.80
3748;BME280;1889;50.058;8.688;2023-06-22T01:43:05;100203.09;;;24.33;70.22
3748;BME280;1889;50.058;8.688;2023-06-22T01:45:35;100189.74;;;24.01;72.54
3748;BME280;1889;50.058;8.688;2023-06-22T01:50:54;100207.94;;;22.41;83.17
3748;BME280;1889;50.058;8.688;2023-06-22T01:53:24;100250.78;;;22.83;80.84
3748;BME280;1889;50.058;8.688;2023-06-22T01:55:53;100279.52;;;22.89;81.32
3748;BME280;1889;50.058;8.688;2023-06-22T01:58:30;100298.25;;;23.03;79.90
3748;BME280;1889;50.058;8.688;2023-06-22T02:00:57;100316.02;;;23.25;78.33
3748;BME280;1889;50.058;8.688;2023-06-22T02:03:30;100314.13;;;23.40;77.47
3748;BME280;1889;50.058;8.688;2023-06-22T02:06:03;100314.58;;;23.19;79.90
3748;BME280;1889;50.058;8.688;2023-06-22T02:08:55;100323.53;;;23.13;80.95
3748;BME280;1889;50.058;8.688;2023-06-22T02:11:04;100313.30;;;23.32;79.37
3748;BME280;1889;50.058;8.688;2023-06-22T02:13:35;100310.19;;;23.38;78.77
3748;BME280;1889;50.058;8.688;2023-06-22T02:16:05;100309.23;;;22.93;84.20
3748;BME280;1889;50.058;8.688;2023-06-22T02:18:34;100310.92;;;22.60;87.28
3748;BME280;1889;50.058;8.688;2023-06-22T02:21:04;100300.34;;;22.85;84.92
3748;BME280;1889;50.058;8.688;2023-06-22T02:23:33;100296.07;;;22.95;84.01
3748;BME280;1889;50.058;8.688;2023-06-22T02:26:03;100294.92;;;22.99;83.50
3748;BME280;1889;50.058;8.688;2023-06-22T02:28:32;100290.63;;;23.16;82.10
3748;BME280;1889;50.058;8.688;2023-06-22T02:31:02;100296.03;;;23.29;81.16
3748;BME280;1889;50.058;8.688;2023-06-22T02:33:31;100301.06;;;23.41;80.27
3748;BME280;1889;50.058;8.688;2023-06-22T02:36:00;100302.19;;;23.44;79.65
3748;BME280;1889;50.058;8.688;2023-06-22T02:38:31;100292.97;;;23.48;79.14
3748;BME280;1889;50.058;8.688;2023-06-22T02:41:03;100295.64;;;23.55;78.53
3748;BME280;1889;50.058;8.688;2023-06-22T02:43:32;100302.64;;;23.57;78.07
3748;BME280;1889;50.058;8.688;2023-06-22T02:46:01;100295.21;;;23.61;77.66
3748;BME280;1889;50.058;8.688;2023-06-22T02:48:30;100293.28;;;23.63;77.43
3748;BME280;1889;50.058;8.688;2023-06-22T02:50:59;100290.50;;;23.65;77.14
3748;BME280;1889;50.058;8.688;2023-06-22T02:53:28;100297.03;;;23.61;77.06
3748;BME280;1889;50.058;8.688;2023-06-22T02:55:57;100297.94;;;23.34;78.19
3748;BME280;1889;50.058;8.688;2023-06-22T02:58:26;100305.67;;;23.39;77.91
3748;BME280;1889;50.058;8.688;2023-06-22T03:00:55;100306.70;;;23.43;77.70
3748;BME280;1889;50.058;8.688;2023-06-22T03:03:24;100295.84;;;23.52;77.05
3748;BME280;1889;50.058;8.688;2023-06-22T03:05:54;100279.46;;;23.49;76.72
3748;BME280;1889;50.058;8.688;2023-06-22T03:08:23;100272.27;;;23.50;76.63
3748;BME280;1889;50.058;8.688;2023-06-22T03:10:52;100270.69;;;23.53;76.39
3748;BME280;1889;50.058;8.688;2023-06-22T03:13:21;100262.05;;;23.55;76.04
3748;BME280;1889;50.058;8.688;2023-06-22T03:15:50;100257.86;;;23.51;75.95
3748;BME280;1889;50.058;8.688;2023-06-22T03:18:20;100257.86;;;23.51;75.78
3748;BME280;1889;50.058;8.688;2023-06-22T03:20:50;100259.56;;;23.52;75.62
3748;BME280;1889;50.058;8.688;2023-06-22T03:23:19;100270.47;;;22.97;78.94
3748;BME280;1889;50.058;8.688;2023-06-22T03:25:48;100275.92;;;22.54;82.25
3748;BME280;1889;50.058;8.688;2023-06-22T03:28:17;100284.23;;;22.71;80.70
3748;BME280;1889;50.058;8.688;2023-06-22T03:30:46;100282.87;;;22.92;79.39
3748;BME280;1889;50.058;8.688;2023-06-22T03:33:15;100273.34;;;23.01;78.66
3748;BME280;1889;50.058;8.688;2023-06-22T03:35:44;100277.50;;;23.12;77.90
3748;BME280;1889;50.058;8.688;2023-06-22T03:38:13;100274.62;;;23.15;77.39
3748;BME280;1889;50.058;8.688;2023-06-22T03:40:42;100266.95;;;23.16;77.33
3748;BME280;1889;50.058;8.688;2023-06-22T03:43:11;100265.88;;;23.18;77.10
3748;BME280;1889;50.058;8.688;2023-06-22T03:45:40;100265.27;;;23.20;76.88
3748;BME280;1889;50.058;8.688;2023-06-22T03:48:09;100261.63;;;23.21;76.84
3748;BME280;1889;50.058;8.688;2023-06-22T03:50:38;100267.14;;;23.33;76.29
3748;BME280;1889;50.058;8.688;2023-06-22T03:53:07;100262.06;;;23.28;76.17
3748;BME280;1889;50.058;8.688;2023-06-22T03:55:37;100269.07;;;23.31;76.06
3748;BME280;1889;50.058;8.688;2023-06-22T03:58:06;100266.38;;;23.31;75.98
3748;BME280;1889;50.058;8.688;2023-06-22T04:00:36;100269.62;;;23.16;77.13
3748;BME280;1889;50.058;8.688;2023-06-22T04:03:05;100271.60;;;23.27;76.68
3748;BME280;1889;50.058;8.688;2023-06-22T04:05:35;100266.58;;;23.28;76.45
3748;BME280;1889;50.058;8.688;2023-06-22T04:08:10;100256.55;;;23.37;75.95
3748;BME280;1889;50.058;8.688;2023-06-22T04:10:39;100260.19;;;23.43;75.36
3748;BME280;1889;50.058;8.688;2023-06-22T04:13:09;100258.80;;;23.30;75.83
3748;BME280;1889;50.058;8.688;2023-06-22T04:15:38;100271.75;;;23.31;75.78
3748;BME280;1889;50.058;8.688;2023-06-22T04:18:07;100270.70;;;23.33;75.70
3748;BME280;1889;50.058;8.688;2023-06-22T04:20:36;100277.66;;;23.43;75.26
3748;BME280;1889;50.058;8.688;2023-06-22T04:23:05;100282.41;;;23.32;75.42
3748;BME280;1889;50.058;8.688;2023-06-22T04:25:34;100273.86;;;23.33;75.42
3748;BME280;1889;50.058;8.688;2023-06-22T04:28:03;100276.93;;;23.34;75.43
3748;BME280;1889;50.058;8.688;2023-06-22T04:30:33;100275.74;;;23.38;75.11
3748;BME280;1889;50.058;8.688;2023-06-22T04:33:02;100269.25;;;23.35;75.29
3748;BME280;1889;50.058;8.688;2023-06-22T04:35:31;100269.60;;;23.36;75.16
3748;BME280;1889;50.058;8.688;2023-06-22T04:38:00;100276.70;;;23.37;75.47
3748;BME280;1889;50.058;8.688;2023-06-22T04:40:31;100273.63;;;23.43;75.24
3748;BME280;1889;50.058;8.688;2023-06-22T04:43:00;100273.23;;;23.42;75.46
3748;BME280;1889;50.058;8.688;2023-06-22T04:45:30;100271.22;;;23.26;76.65
3748;BME280;1889;50.058;8.688;2023-06-22T04:47:59;100269.64;;;23.29;76.67
3748;BME280;1889;50.058;8.688;2023-06-22T04:50:28;100272.77;;;23.35;76.42
3748;BME280;1889;50.058;8.688;2023-06-22T04:52:57;100272.14;;;23.32;76.60
3748;BME280;1889;50.058;8.688;2023-06-22T04:55:26;100275.55;;;23.41;76.27
3748;BME280;1889;50.058;8.688;2023-06-22T04:57:55;100276.36;;;23.29;76.83
3748;BME280;1889;50.058;8.688;2023-06-22T05:00:24;100273.17;;;23.16;77.85
3748;BME280;1889;50.058;8.688;2023-06-22T05:02:54;100273.09;;;23.31;77.21
3748;BME280;1889;50.058;8.688;2023-06-22T05:05:24;100271.47;;;23.28;77.24
3748;BME280;1889;50.058;8.688;2023-06-22T05:07:56;100271.55;;;23.14;77.93
3748;BME280;1889;50.058;8.688;2023-06-22T05:10:27;100266.33;;;23.25;77.63
3748;BME280;1889;50.058;8.688;2023-06-22T05:12:56;100269.35;;;23.33;77.27
3748;BME280;1889;50.058;8.688;2023-06-22T05:15:25;100264.95;;;23.45;76.91
3748;BME280;1889;50.058;8.688;2023-06-22T05:17:56;100264.58;;;23.51;76.58
3748;BME280;1889;50.058;8.688;2023-06-22T05:20:26;100264.61;;;23.37;77.34
3748;BME280;1889;50.058;8.688;2023-06-22T05:22:55;100263.41;;;23.48;77.12
3748;BME280;1889;50.058;8.688;2023-06-22T05:25:24;100270.11;;;23.55;76.80
3748;BME280;1889;50.058;8.688;2023-06-22T05:27:53;100257.10;;;23.49;76.92
3748;BME280;1889;50.058;8.688;2023-06-22T05:30:22;100262.34;;;23.18;78.82
3748;BME280;1889;50.058;8.688;2023-06-22T05:32:51;100260.33;;;23.14;79.35
3748;BME280;1889;50.058;8.688;2023-06-22T05:35:20;100258.93;;;22.82;81.70
3748;BME280;1889;50.058;8.688;2023-06-22T05:37:49;100261.33;;;22.79;82.40
3748;BME280;1889;50.058;8.688;2023-06-22T05:40:19;100250.91;;;22.75;83.56
3748;BME280;1889;50.058;8.688;2023-06-22T05:42:48;100251.54;;;23.05;82.04
3748;BME280;1889;50.058;8.688;2023-06-22T05:45:17;100253.13;;;23.15;81.78
3748;BME280;1889;50.058;8.688;2023-06-22T05:47:46;100254.63;;;23.26;81.44
3748;BME280;1889;50.058;8.688;2023-06-22T05:50:15;100243.69;;;23.42;80.75
3748;BME280;1889;50.058;8.688;2023-06-22T05:52:44;100246.30;;;23.56;80.08
3748;BME280;1889;50.058;8.688;2023-06-22T05:55:13;100242.80;;;23.61;79.86
3748;BME280;1889;50.058;8.688;2023-06-22T05:57:43;100248.09;;;23.10;82.01
3748;BME280;1889;50.058;8.688;2023-06-22T06:00:13;100247.81;;;23.40;81.45
3748;BME280;1889;50.058;8.688;2023-06-22T06:02:42;100241.88;;;23.68;80.15
3748;BME280;1889;50.058;8.688;2023-06-22T06:05:12;100245.59;;;23.85;79.24
3748;BME280;1889;50.058;8.688;2023-06-22T06:07:51;100244.24;;;23.59;79.76
3748;BME280;1889;50.058;8.688;2023-06-22T06:10:20;100243.28;;;23.86;78.92
3748;BME280;1889;50.058;8.688;2023-06-22T06:12:49;100250.55;;;23.78;78.52
3748;BME280;1889;50.058;8.688;2023-06-22T06:15:19;100252.70;;;23.41;81.39
3748;BME280;1889;50.058;8.688;2023-06-22T06:17:52;100251.07;;;23.26;81.90
3748;BME280;1889;50.058;8.688;2023-06-22T06:20:26;100244.36;;;23.26;82.47
3748;BME280;1889;50.058;8.688;2023-06-22T06:22:57;100234.64;;;23.63;81.00
3748;BME280;1889;50.058;8.688;2023-06-22T06:25:26;100227.91;;;23.88;79.88
3748;BME280;1889;50.058;8.688;2023-06-22T06:27:55;100220.05;;;23.85;79.93
3748;BME280;1889;50.058;8.688;2023-06-22T06:30:24;100223.81;;;24.08;79.10
3748;BME280;1889;50.058;8.688;2023-06-22T06:32:53;100228.13;;;23.98;78.76
3748;BME280;1889;50.058;8.688;2023-06-22T06:35:23;100225.12;;;23.64;78.87
3748;BME280;1889;50.058;8.688;2023-06-22T06:37:52;100227.17;;;23.73;80.26
3748;BME280;1889;50.058;8.688;2023-06-22T06:40:21;100224.57;;;23.97;78.84
3748;BME280;1889;50.058;8.688;2023-06-22T06:42:50;100224.57;;;23.97;78.72
3748;BME280;1889;50.058;8.688;2023-06-22T06:45:21;100223.36;;;23.83;77.82
3748;BME280;1889;50.058;8.688;2023-06-22T06:47:52;100223.84;;;24.01;78.60
3748;BME280;1889;50.058;8.688;2023-06-22T06:50:22;100222.59;;;24.24;77.61
3748;BME280;1889;50.058;8.688;2023-06-22T06:52:51;100222.48;;;24.26;76.57
3748;BME280;1889;50.058;8.688;2023-06-22T06:55:20;100213.07;;;24.26;76.71
3748;BME280;1889;50.058;8.688;2023-06-22T06:57:51;100208.98;;;24.57;75.80
3748;BME280;1889;50.058;8.688;2023-06-22T07:00:20;100210.30;;;24.51;74.47
3748;BME280;1889;50.058;8.688;2023-06-22T07:02:50;100203.84;;;24.36;75.12
3748;BME280;1889;50.058;8.688;2023-06-22T07:05:19;100208.09;;;24.32;75.90
3748;BME280;1889;50.058;8.688;2023-06-22T07:07:48;100210.59;;;24.41;75.27
3748;BME280;1889;50.058;8.688;2023-06-22T07:10:17;100211.46;;;24.42;74.62
3748;BME280;1889;50.058;8.688;2023-06-22T07:12:47;100210.55;;;24.30;75.93
3748;BME280;1889;50.058;8.688;2023-06-22T07:15:16;100207.52;;;24.58;75.71
3748;BME280;1889;50.058;8.688;2023-06-22T07:17:45;100204.98;;;24.86;74.58
3748;BME280;1889;50.058;8.688;2023-06-22T07:20:14;100194.41;;;24.72;74.08
3748;BME280;1889;50.058;8.688;2023-06-22T07:22:44;100189.87;;;24.73;74.19
3748;BME280;1889;50.058;8.688;2023-06-22T07:25:13;100191.14;;;24.85;74.12
3748;BME280;1889;50.058;8.688;2023-06-22T07:27:58;100190.16;;;24.81;73.93
3748;BME280;1889;50.058;8.688;2023-06-22T07:30:19;100192.80;;;24.93;74.71
3748;BME280;1889;50.058;8.688;2023-06-22T07:32:48;100188.22;;;25.12;73.62
3748;BME280;1889;50.058;8.688;2023-06-22T07:35:17;100194.41;;;24.96;73.46
3748;BME280;1889;50.058;8.688;2023-06-22T07:37:46;100197.50;;;25.08;72.94
3748;BME280;1889;50.058;8.688;2023-06-22T07:40:15;100187.58;;;25.03;72.70
3748;BME280;1889;50.058;8.688;2023-06-22T07:42:44;100192.64;;;25.24;72.44
3748;BME280;1889;50.058;8.688;2023-06-22T07:45:15;100179.50;;;25.08;72.00
3748;BME280;1889;50.058;8.688;2023-06-22T07:47:44;100173.14;;;25.15;72.14
3748;BME280;1889;50.058;8.688;2023-06-22T07:50:13;100172.98;;;25.05;72.33
3748;BME280;1889;50.058;8.688;2023-06-22T07:52:42;100177.00;;;25.29;71.63
3748;BME280;1889;50.058;8.688;2023-06-22T07:55:11;100168.56;;;25.51;71.09
3748;BME280;1889;50.058;8.688;2023-06-22T07:57:40;100173.21;;;25.48;70.18
3748;BME280;1889;50.058;8.688;2023-06-22T08:00:10;100167.19;;;25.34;71.47
3748;BME280;1889;50.058;8.688;2023-06-22T08:02:42;100177.45;;;25.23;71.07
3748;BME280;1889;50.058;8.688;2023-06-22T08:05:12;100166.24;;;25.52;70.63
3748;BME280;1889;50.058;8.688;2023-06-22T08:07:41;100170.70;;;25.69;70.12
3748;BME280;1889;50.058;8.688;2023-06-22T08:10:13;100168.00;;;25.75;69.60
3748;BME280;1889;50.058;8.688;2023-06-22T08:12:42;100170.70;;;25.86;69.35
3748;BME280;1889;50.058;8.688;2023-06-22T08:15:12;100167.00;;;25.87;68.21
3748;BME280;1889;50.058;8.688;2023-06-22T08:17:41;100165.17;;;25.82;68.84
3748;BME280;1889;50.058;8.688;2023-06-22T08:20:10;100162.35;;;25.72;68.76
3748;BME280;1889;50.058;8.688;2023-06-22T08:22:43;100157.71;;;25.86;67.68
3748;BME280;1889;50.058;8.688;2023-06-22T08:25:12;100158.30;;;26.00;67.72
3748;BME280;1889;50.058;8.688;2023-06-22T08:27:46;100151.02;;;26.23;67.13
3748;BME280;1889;50.058;8.688;2023-06-22T08:30:18;100152.61;;;26.37;66.73
3748;BME280;1889;50.058;8.688;2023-06-22T08:32:47;100144.02;;;26.43;65.61
3748;BME280;1889;50.058;8.688;2023-06-22T08:35:16;100134.78;;;26.45;65.51
3748;BME280;1889;50.058;8.688;2023-06-22T08:37:45;100141.87;;;26.52;64.74
3748;BME280;1889;50.058;8.688;2023-06-22T08:40:15;100147.98;;;26.59;64.64
3748;BME280;1889;50.058;8.688;2023-06-22T08:42:45;100136.73;;;26.81;63.71
3748;BME280;1889;50.058;8.688;2023-06-22T08:45:14;100130.06;;;26.96;62.78
3748;BME280;1889;50.058;8.688;2023-06-22T08:47:44;100128.22;;;26.96;61.83
3748;BME280;1889;50.058;8.688;2023-06-22T08:50:13;100129.65;;;27.01;61.59
3748;BME280;1889;50.058;8.688;2023-06-22T08:52:42;100122.03;;;27.00;61.61
3748;BME280;1889;50.058;8.688;2023-06-22T08:55:11;100119.77;;;27.11;60.73
3748;BME280;1889;50.058;8.688;2023-06-22T08:57:42;100114.74;;;27.27;60.43
3748;BME280;1889;50.058;8.688;2023-06-22T09:00:14;100107.19;;;27.36;60.43
3748;BME280;1889;50.058;8.688;2023-06-22T09:03:02;100106.88;;;27.45;59.96
3748;BME280;1889;50.058;8.688;2023-06-22T09:05:32;100107.03;;;27.58;59.83
3748;BME280;1889;50.058;8.688;2023-06-22T09:08:01;100107.00;;;27.64;59.34
3748;BME280;1889;50.058;8.688;2023-06-22T09:10:30;100098.70;;;27.71;59.05
3748;BME280;1889;50.058;8.688;2023-06-22T09:12:59;100109.27;;;27.84;58.98
3748;BME280;1889;50.058;8.688;2023-06-22T09:15:28;100112.06;;;27.97;58.58
3748;BME280;1889;50.058;8.688;2023-06-22T09:17:57;100107.61;;;27.77;58.05
3748;BME280;1889;50.058;8.688;2023-06-22T09:20:26;100103.19;;;27.76;57.32
3748;BME280;1889;50.058;8.688;2023-06-22T09:22:55;100103.84;;;27.84;58.20
3748;BME280;1889;50.058;8.688;2023-06-22T09:25:24;100099.56;;;27.96;57.70
3748;BME280;1889;50.058;8.688;2023-06-22T09:27:53;100095.86;;;28.07;57.42
3748;BME280;1889;50.058;8.688;2023-06-22T09:30:22;100094.23;;;28.10;56.97
3748;BME280;1889;50.058;8.688;2023-06-22T09:32:51;100090.23;;;28.20;56.31
3748;BME280;1889;50.058;8.688;2023-06-22T09:35:20;100078.41;;;28.21;55.36
3748;BME280;1889;50.058;8.688;2023-06-22T09:37:49;100083.48;;;28.29;55.50
3748;BME280;1889;50.058;8.688;2023-06-22T09:40:18;100068.14;;;28.34;54.39
3748;BME280;1889;50.058;8.688;2023-06-22T09:42:48;100071.36;;;28.43;54.01
3748;BME280;1889;50.058;8.688;2023-06-22T09:45:17;100065.94;;;28.43;53.41
3748;BME280;1889;50.058;8.688;2023-06-22T09:47:46;100072.08;;;28.45;52.84
3748;BME280;1889;50.058;8.688;2023-06-22T09:50:15;100068.48;;;28.54;53.00
3748;BME280;1889;50.058;8.688;2023-06-22T09:52:44;100074.04;;;28.72;52.96
3748;BME280;1889;50.058;8.688;2023-06-22T09:55:15;100056.79;;;28.73;52.13
3748;BME280;1889;50.058;8.688;2023-06-22T09:57:44;100056.92;;;28.71;52.21
3748;BME280;1889;50.058;8.688;2023-06-22T10:00:14;100054.45;;;28.93;52.41
3748;BME280;1889;50.058;8.688;2023-06-22T10:02:44;100056.34;;;28.97;51.92
3748;BME280;1889;50.058;8.688;2023-06-22T10:05:13;100054.98;;;28.97;51.86
3748;BME280;1889;50.058;8.688;2023-06-22T10:07:42;100052.91;;;29.04;51.81
3748;BME280;1889;50.058;8.688;2023-06-22T10:10:12;100053.84;;;29.22;51.65
3748;BME280;1889;50.058;8.688;2023-06-22T10:12:44;100048.04;;;29.41;51.08
3748;BME280;1889;50.058;8.688;2023-06-22T10:15:13;100041.97;;;29.33;51.56
3748;BME280;1889;50.058;8.688;2023-06-22T10:17:42;100044.11;;;29.39;51.60
3748;BME280;1889;50.058;8.688;2023-06-22T10:20:11;100035.97;;;29.53;51.53
3748;BME280;1889;50.058;8.688;2023-06-22T10:22:45;100026.69;;;29.55;50.54
3748;BME280;1889;50.058;8.688;2023-06-22T10:25:14;100026.28;;;29.64;50.35
3748;BME280;1889;50.058;8.688;2023-06-22T10:27:43;100016.37;;;29.73;49.74
3748;BME280;1889;50.058;8.688;2023-06-22T10:30:13;100016.97;;;29.94;49.38
3748;BME280;1889;50.058;8.688;2023-06-22T10:32:43;100007.77;;;30.05;49.15
3748;BME280;1889;50.058;8.688;2023-06-22T10:35:12;99998.94;;;30.24;48.61
3748;BME280;1889;50.058;8.688;2023-06-22T10:37:46;99988.60;;;30.24;48.20
3748;BME280;1889;50.058;8.688;2023-06-22T10:40:16;99990.63;;;30.26;48.91
3748;BME280;1889;50.058;8.688;2023-06-22T10:42:46;99984.98;;;30.41;47.44
3748;BME280;1889;50.058;8.688;2023-06-22T10:45:15;99981.81;;;30.46;46.43
3748;BME280;1889;50.058;8.688;2023-06-22T10:47:44;99968.08;;;30.47;46.02
3748;BME280;1889;50.058;8.688;2023-06-22T10:50:14;99964.55;;;30.51;46.56
3748;BME280;1889;50.058;8.688;2023-06-22T10:52:43;99953.73;;;30.55;47.11
3748;BME280;1889;50.058;8.688;2023-06-22T10:55:12;99952.52;;;30.53;45.65
3748;BME280;1889;50.058;8.688;2023-06-22T10:57:41;99954.79;;;30.62;46.09
3748;BME280;1889;50.058;8.688;2023-06-22T11:00:15;99944.12;;;30.68;46.30
3748;BME280;1889;50.058;8.688;2023-06-22T11:02:44;99945.13;;;30.67;46.02
3748;BME280;1889;50.058;8.688;2023-06-22T11:05:13;99932.14;;;30.83;45.76
3748;BME280;1889;50.058;8.688;2023-06-22T11:07:43;99931.80;;;30.82;45.81
3748;BME280;1889;50.058;8.688;2023-06-22T11:10:13;99922.16;;;30.88;45.79
3748;BME280;1889;50.058;8.688;2023-06-22T11:12:42;99919.09;;;30.87;45.77
3748;BME280;1889;50.058;8.688;2023-06-22T11:15:11;99909.38;;;30.84;45.89
3748;BME280;1889;50.058;8.688;2023-06-22T11:17:40;99901.65;;;31.01;46.34
3748;BME280;1889;50.058;8.688;2023-06-22T11:20:09;99907.19;;;31.18;45.79
3748;BME280;1889;50.058;8.688;2023-06-22T11:22:40;99907.03;;;31.23;45.81
3748;BME280;1889;50.058;8.688;2023-06-22T11:25:09;99906.74;;;31.00;45.70
3748;BME280;1889;50.058;8.688;2023-06-22T11:27:40;99889.69;;;31.20;45.58
3748;BME280;1889;50.058;8.688;2023-06-22T11:30:10;99885.13;;;31.29;45.37
3748;BME280;1889;50.058;8.688;2023-06-22T11:32:39;99884.84;;;31.52;45.02
3748;BME280;1889;50.058;8.688;2023-06-22T11:35:09;99871.21;;;31.48;45.20
3748;BME280;1889;50.058;8.688;2023-06-22T11:37:38;99878.70;;;31.50;44.60
3748;BME280;1889;50.058;8.688;2023-06-22T11:40:07;99881.41;;;31.46;44.28
3748;BME280;1889;50.058;8.688;2023-06-22T11:42:37;99884.80;;;31.40;44.20
3748;BME280;1889;50.058;8.688;2023-06-22T11:45:07;99890.41;;;31.38;44.00
3748;BME280;1889;50.058;8.688;2023-06-22T11:47:36;99880.88;;;31.38;43.76
3748;BME280;1889;50.058;8.688;2023-06-22T11:50:06;99869.84;;;31.36;43.48
3748;BME280;1889;50.058;8.688;2023-06-22T11:52:35;99870.01;;;31.46;43.42
3748;BME280;1889;50.058;8.688;2023-06-22T11:55:05;99874.12;;;31.51;43.63
3748;BME280;1889;50.058;8.688;2023-06-22T11:57:36;99872.09;;;31.61;43.92
3748;BME280;1889;50.058;8.688;2023-06-22T12:00:06;99864.30;;;31.74;43.44
3748;BME280;1889;50.058;8.688;2023-06-22T12:02:45;99862.42;;;31.78;43.40
3748;BME280;1889;50.058;8.688;2023-06-22T12:05:14;99854.78;;;31.90;43.50
3748;BME280;1889;50.058;8.688;2023-06-22T12:07:43;99854.44;;;31.89;43.54
3748;BME280;1889;50.058;8.688;2023-06-22T12:10:12;99855.80;;;31.97;43.43
3748;BME280;1889;50.058;8.688;2023-06-22T12:12:41;99859.02;;;32.05;43.49
3748;BME280;1889;50.058;8.688;2023-06-22T12:15:11;99856.83;;;31.84;43.55
3748;BME280;1889;50.058;8.688;2023-06-22T12:17:40;99844.91;;;31.89;43.75
3748;BME280;1889;50.058;8.688;2023-06-22T12:20:10;99840.47;;;32.08;43.62
3748;BME280;1889;50.058;8.688;2023-06-22T12:22:40;99848.81;;;32.19;43.57
3748;BME280;1889;50.058;8.688;2023-06-22T12:25:09;99853.40;;;32.14;43.62
3748;BME280;1889;50.058;8.688;2023-06-22T12:27:38;99854.62;;;32.24;43.79
3748;BME280;1889;50.058;8.688;2023-06-22T12:30:09;99857.63;;;32.45;43.82
3748;BME280;1889;50.058;8.688;2023-06-22T12:32:38;99853.73;;;32.40;42.81
3748;BME280;1889;50.058;8.688;2023-06-22T12:35:07;99837.19;;;32.49;42.69
3748;BME280;1889;50.058;8.688;2023-06-22T12:37:38;99841.95;;;32.47;42.58
3748;BME280;1889;50.058;8.688;2023-06-22T12:40:08;99841.48;;;32.32;42.74
3748;BME280;1889;50.058;8.688;2023-06-22T12:42:37;99842.64;;;32.49;42.45
3748;BME280;1889;50.058;8.688;2023-06-22T12:45:07;99844.20;;;32.28;42.84
3748;BME280;1889;50.058;8.688;2023-06-22T12:47:37;99836.75;;;32.17;43.55
3748;BME280;1889;50.058;8.688;2023-06-22T12:50:07;99840.80;;;32.13;43.46
3748;BME280;1889;50.058;8.688;2023-06-22T12:52:51;99831.73;;;32.49;43.11
3748;BME280;1889;50.058;8.688;2023-06-22T12:55:20;99829.20;;;32.40;43.32
3748;BME280;1889;50.058;8.688;2023-06-22T12:57:49;99828.95;;;32.62;43.15
3748;BME280;1889;50.058;8.688;2023-06-22T13:00:18;99837.14;;;32.74;43.27
3748;BME280;1889;50.058;8.688;2023-06-22T13:02:47;99840.69;;;32.78;43.25
3748;BME280;1889;50.058;8.688;2023-06-22T13:05:16;99834.03;;;32.77;42.75
3748;BME280;1889;50.058;8.688;2023-06-22T13:07:45;99842.02;;;32.86;42.33
3748;BME280;1889;50.058;8.688;2023-06-22T13:10:14;99839.32;;;32.78;42.23
3748;BME280;1889;50.058;8.688;2023-06-22T13:12:43;99840.65;;;32.86;42.12
3748;BME280;1889;50.058;8.688;2023-06-22T13:15:12;99832.36;;;32.64;42.70
3748;BME280;1889;50.058;8.688;2023-06-22T13:17:41;99822.28;;;32.80;42.40
3748;BME280;1889;50.058;8.688;2023-06-22T13:20:11;99818.39;;;32.71;42.55
3748;BME280;1889;50.058;8.688;2023-06-22T13:22:40;99812.52;;;32.43;43.05
3748;BME280;1889;50.058;8.688;2023-06-22T13:25:11;99811.46;;;32.44;43.05
3748;BME280;1889;50.058;8.688;2023-06-22T13:27:41;99804.55;;;32.21;43.38
3748;BME280;1889;50.058;8.688;2023-06-22T13:30:10;99806.72;;;32.42;43.28
3748;BME280;1889;50.058;8.688;2023-06-22T13:32:40;99793.75;;;32.48;43.28
3748;BME280;1889;50.058;8.688;2023-06-22T13:35:11;99792.23;;;32.37;43.21